Time;durP1;ratioP1;P1;durP2;ratioP2;P2;SDS_P1;SDS_P2;PMS_P1;PMS_P2;Temp;Humidity;BMP_temperature;BMP_pressure;BME280_temperature;BME280_humidity;BME280_pressure;Samples;Min_cycle;Max_cycle;Signal;HPM_P1;HPM_P2
2023/12/25 00:01:08;;;;;;;20.55;3.03;;;11.00;99.90;;;;;;5071631;28;20199;-72
2023/12/25 00:03:34;;;;;;;16.63;3.03;;;10.80;99.90;;;;;;5070031;28;20051;-71
2023/12/25 00:05:59;;;;;;;17.60;2.53;;;10.80;99.90;;;;;;5069647;28;20395;-71
2023/12/25 00:08:25;;;;;;;11.15;2.40;;;10.80;99.90;;;;;;5070966;28;20045;-71
2023/12/25 00:10:51;;;;;;;16.25;2.88;;;10.80;99.90;;;;;;5071091;28;20504;-71
2023/12/25 00:13:16;;;;;;;14.73;2.40;;;10.80;99.90;;;;;;5071490;28;20119;-71
2023/12/25 00:15:42;;;;;;;14.95;3.40;;;10.90;99.90;;;;;;5070976;28;20068;-71
2023/12/25 00:18:08;;;;;;;17.52;2.70;;;10.90;99.90;;;;;;5070985;28;20131;-71
2023/12/25 00:20:33;;;;;;;14.88;2.67;;;11.00;99.90;;;;;;5072666;28;20087;-71
2023/12/25 00:22:59;;;;;;;14.15;2.60;;;11.10;99.90;;;;;;5072352;28;20120;-71
2023/12/25 00:25:25;;;;;;;17.45;2.60;;;10.90;99.90;;;;;;5071372;28;20063;-71
2023/12/25 00:27:51;;;;;;;12.73;2.83;;;11.20;99.90;;;;;;5072225;28;20503;-71
2023/12/25 00:30:16;;;;;;;12.30;2.22;;;10.80;99.90;;;;;;5072399;28;20090;-71
2023/12/25 00:32:42;;;;;;;9.93;2.40;;;10.80;99.90;;;;;;5072087;28;20549;-71
2023/12/25 00:35:08;;;;;;;10.73;1.95;;;10.90;99.90;;;;;;5071977;28;20111;-71
2023/12/25 00:37:33;;;;;;;16.13;2.22;;;10.80;99.90;;;;;;5061289;28;20040;-71
2023/12/25 00:39:59;;;;;;;9.68;2.40;;;10.80;99.90;;;;;;5073269;28;20089;-71
2023/12/25 00:42:25;;;;;;;9.88;2.15;;;10.80;99.90;;;;;;5072464;28;20464;-70
2023/12/25 00:44:50;;;;;;;9.70;2.00;;;11.20;99.90;;;;;;5071590;28;20079;-71
2023/12/25 00:47:16;;;;;;;14.07;2.60;;;11.10;99.90;;;;;;5073150;28;20056;-71
2023/12/25 00:49:41;;;;;;;10.65;2.10;;;11.50;99.90;;;;;;5072532;28;20056;-71
2023/12/25 00:52:07;;;;;;;7.28;2.40;;;11.20;99.90;;;;;;5070500;28;20045;-71
2023/12/25 00:54:35;;;;;;;11.55;1.80;;;11.40;99.90;;;;;;5072348;28;20508;-71
2023/12/25 00:57:01;;;;;;;14.63;2.20;;;10.90;99.90;;;;;;5073114;28;20076;-71
2023/12/25 00:59:27;;;;;;;15.48;2.78;;;11.20;99.90;;;;;;5071728;28;20121;-71
2023/12/25 01:01:52;;;;;;;14.07;2.17;;;11.20;99.90;;;;;;5072295;28;20468;-71
2023/12/25 01:04:18;;;;;;;9.13;1.90;;;10.70;99.90;;;;;;5071965;28;20048;-71
2023/12/25 01:06:44;;;;;;;10.30;2.03;;;10.70;99.90;;;;;;5070533;28;20080;-71
2023/12/25 01:09:09;;;;;;;9.82;2.05;;;11.10;99.90;;;;;;5071713;28;20078;-71
2023/12/25 01:11:42;;;;;;;11.05;2.22;;;10.60;99.90;;;;;;5071874;28;20395;-71
2023/12/25 01:14:08;;;;;;;9.90;1.90;;;10.80;99.90;;;;;;5070594;28;20045;-71
2023/12/25 01:16:34;;;;;;;9.95;2.03;;;10.60;99.90;;;;;;5072012;28;20131;-71
2023/12/25 01:19:00;;;;;;;9.50;2.10;;;10.90;99.90;;;;;;5071829;28;20129;-71
2023/12/25 01:21:25;;;;;;;7.95;2.00;;;10.50;99.90;;;;;;5070728;28;20051;-71
2023/12/25 01:23:51;;;;;;;15.57;2.22;;;10.50;99.90;;;;;;5071552;28;20454;-71
2023/12/25 01:26:18;;;;;;;13.00;2.28;;;10.50;99.90;;;;;;5071030;28;20083;-71
2023/12/25 01:28:47;;;;;;;11.05;2.50;;;10.60;99.90;;;;;;5070928;28;20055;-71
2023/12/25 01:31:12;;;;;;;11.82;2.47;;;10.50;99.90;;;;;;5070328;28;20043;-71
2023/12/25 01:33:38;;;;;;;13.85;2.25;;;10.50;99.90;;;;;;5071433;28;20036;-70
2023/12/25 01:36:04;;;;;;;11.60;2.25;;;10.30;99.90;;;;;;5070391;28;20078;-71
2023/12/25 01:38:29;;;;;;;15.75;2.22;;;10.30;99.90;;;;;;5071320;28;20099;-71
2023/12/25 01:40:55;;;;;;;14.32;2.65;;;10.20;99.90;;;;;;5070483;28;20054;-70
2023/12/25 01:43:21;;;;;;;13.70;2.63;;;10.20;99.90;;;;;;5070716;28;20045;-71
2023/12/25 01:45:46;;;;;;;16.70;2.85;;;10.30;99.90;;;;;;5070897;28;20052;-71
2023/12/25 01:48:12;;;;;;;12.00;2.65;;;10.40;99.90;;;;;;5070377;28;20143;-71
2023/12/25 01:50:39;;;;;;;8.98;2.60;;;10.50;99.90;;;;;;5071227;28;20057;-70
2023/12/25 01:53:05;;;;;;;14.90;2.63;;;10.30;99.90;;;;;;5071264;28;20044;-71
2023/12/25 01:55:31;;;;;;;18.33;3.03;;;10.20;99.90;;;;;;5069930;28;20116;-71
2023/12/25 01:57:57;;;;;;;10.90;2.22;;;10.30;99.90;;;;;;5071299;28;20540;-70
2023/12/25 02:00:23;;;;;;;16.20;2.40;;;10.10;99.90;;;;;;5070704;28;20048;-71
2023/12/25 02:02:49;;;;;;;15.90;3.30;;;10.20;99.90;;;;;;5070388;28;20040;-71
2023/12/25 02:05:15;;;;;;;10.00;2.22;;;10.50;99.90;;;;;;5070681;28;20132;-71
2023/12/25 02:07:43;;;;;;;17.42;3.47;;;10.00;99.90;;;;;;5071071;28;20044;-71
2023/12/25 02:10:09;;;;;;;17.20;3.22;;;10.00;99.90;;;;;;5069893;28;20123;-71
2023/12/25 02:12:36;;;;;;;16.45;2.58;;;10.00;99.90;;;;;;5070837;28;20076;-71
2023/12/25 02:15:03;;;;;;;14.65;2.72;;;10.00;99.90;;;;;;5070441;28;20120;-71
2023/12/25 02:17:29;;;;;;;11.40;2.72;;;10.00;99.90;;;;;;5070262;28;20127;-70
2023/12/25 02:19:56;;;;;;;15.40;2.63;;;10.00;99.90;;;;;;5070825;28;20048;-71
2023/12/25 02:22:21;;;;;;;14.02;2.40;;;9.90;99.90;;;;;;5070402;28;20036;-70
2023/12/25 02:25:02;;;;;;;11.80;2.83;;;10.00;99.90;;;;;;5069900;28;20059;-71
2023/12/25 02:27:28;;;;;;;14.70;2.60;;;10.00;99.90;;;;;;5070268;28;20116;-71
2023/12/25 02:29:54;;;;;;;12.95;2.83;;;10.00;99.90;;;;;;5070831;28;20102;-71
2023/12/25 02:32:22;;;;;;;11.65;2.60;;;10.10;99.90;;;;;;5071725;28;20080;-71
2023/12/25 02:34:48;;;;;;;13.73;2.33;;;10.30;99.90;;;;;;5070446;28;20102;-71
2023/12/25 02:37:14;;;;;;;15.85;3.50;;;10.40;99.90;;;;;;5068877;28;20064;-71
2023/12/25 02:39:40;;;;;;;16.40;2.80;;;10.00;99.90;;;;;;5070998;28;20395;-71
2023/12/25 02:42:05;;;;;;;9.82;2.72;;;10.00;99.90;;;;;;5070225;28;20131;-71
2023/12/25 02:44:31;;;;;;;12.90;2.40;;;10.00;99.90;;;;;;5069589;28;20052;-71
2023/12/25 02:46:57;;;;;;;16.33;2.53;;;10.00;99.90;;;;;;5070158;28;20056;-70
2023/12/25 02:49:22;;;;;;;16.10;2.45;;;10.00;99.90;;;;;;5070527;28;20083;-71
2023/12/25 02:51:48;;;;;;;10.63;2.58;;;10.20;99.90;;;;;;5069630;28;20048;-71
2023/12/25 02:54:13;;;;;;;14.35;2.40;;;10.70;99.90;;;;;;5070474;28;20436;-71
2023/12/25 02:56:40;;;;;;;12.25;2.60;;;10.00;99.90;;;;;;5069904;28;20101;-71
2023/12/25 02:59:06;;;;;;;12.88;2.45;;;10.00;99.90;;;;;;5069739;28;20131;-71
2023/12/25 03:01:31;;;;;;;12.90;2.30;;;10.00;99.90;;;;;;5069803;28;20123;-71
2023/12/25 03:03:57;;;;;;;13.60;2.47;;;10.00;99.90;;;;;;5070387;28;20045;-72
2023/12/25 03:06:22;;;;;;;17.50;2.45;;;10.00;99.90;;;;;;5069081;28;20080;-71
2023/12/25 03:08:48;;;;;;;13.27;2.72;;;10.00;99.90;;;;;;5070658;28;20055;-71
2023/12/25 03:11:13;;;;;;;17.67;2.97;;;10.40;99.90;;;;;;5071028;28;20120;-71
2023/12/25 03:13:39;;;;;;;12.32;2.58;;;9.90;99.90;;;;;;5071112;28;20078;-71
2023/12/25 03:16:08;;;;;;;11.60;3.28;;;9.90;99.90;;;;;;5070768;28;20044;-72
2023/12/25 03:18:34;;;;;;;19.00;3.08;;;9.90;99.90;;;;;;5069948;28;20396;-71
2023/12/25 03:20:59;;;;;;;13.98;2.70;;;10.00;99.90;;;;;;5069275;28;20048;-71
2023/12/25 03:23:25;;;;;;;12.93;2.80;;;9.90;99.90;;;;;;5070065;28;20481;-71
2023/12/25 03:25:51;;;;;;;12.30;2.67;;;9.90;99.90;;;;;;5069929;28;20074;-72
2023/12/25 03:28:16;;;;;;;13.23;2.22;;;9.90;99.90;;;;;;5069422;28;20047;-71
2023/12/25 03:30:42;;;;;;;14.30;2.60;;;10.10;99.90;;;;;;5070067;28;20040;-71
2023/12/25 03:33:07;;;;;;;14.98;3.20;;;9.90;99.90;;;;;;5069409;28;20067;-72
2023/12/25 03:35:34;;;;;;;13.07;3.08;;;10.00;99.90;;;;;;5069432;28;20111;-71
2023/12/25 03:38:00;;;;;;;15.18;2.85;;;9.90;99.90;;;;;;5069540;28;20049;-72
2023/12/25 03:40:25;;;;;;;21.40;3.25;;;10.00;99.90;;;;;;5071228;28;20103;-71
2023/12/25 03:42:55;;;;;;;16.27;3.10;;;10.20;99.90;;;;;;5072943;28;20055;-72
2023/12/25 03:45:20;;;;;;;17.05;2.70;;;9.90;99.90;;;;;;5073298;28;20127;-71
2023/12/25 03:47:48;;;;;;;17.35;3.58;;;10.20;99.90;;;;;;5072883;28;20131;-71
2023/12/25 03:50:14;;;;;;;12.45;2.60;;;10.60;99.90;;;;;;5073272;28;20041;-72
2023/12/25 03:52:40;;;;;;;15.15;2.55;;;9.90;99.90;;;;;;5073454;28;20051;-71
2023/12/25 03:55:06;;;;;;;16.27;2.70;;;9.80;99.90;;;;;;5072494;28;20093;-71
2023/12/25 03:57:31;;;;;;;14.98;2.78;;;9.90;99.90;;;;;;5073332;28;20135;-72
2023/12/25 03:59:57;;;;;;;17.10;3.17;;;10.10;99.90;;;;;;5073462;28;20040;-72
2023/12/25 04:02:22;;;;;;;17.90;3.10;;;9.90;99.90;;;;;;5072088;28;20503;-71
2023/12/25 04:04:48;;;;;;;17.10;2.85;;;9.90;99.90;;;;;;5073337;28;20041;-72
2023/12/25 04:07:14;;;;;;;18.90;2.55;;;9.90;99.90;;;;;;5073051;28;20051;-72
2023/12/25 04:09:41;;;;;;;13.75;3.03;;;10.00;99.90;;;;;;5072071;28;20131;-71
2023/12/25 04:12:07;;;;;;;13.80;2.47;;;10.00;99.90;;;;;;5072822;28;20056;-72
2023/12/25 04:14:37;;;;;;;17.30;2.67;;;9.90;99.90;;;;;;5073354;28;20102;-71
2023/12/25 04:17:05;;;;;;;18.00;2.58;;;10.40;99.90;;;;;;5072148;28;20040;-72
2023/12/25 04:19:32;;;;;;;18.42;3.65;;;9.90;99.90;;;;;;5073154;28;20052;-71
2023/12/25 04:21:58;;;;;;;14.68;2.67;;;9.90;99.90;;;;;;5073955;28;20050;-71
2023/12/25 04:24:24;;;;;;;15.98;2.75;;;10.10;99.90;;;;;;5073696;28;20052;-71
2023/12/25 04:26:49;;;;;;;15.45;2.95;;;10.10;99.90;;;;;;5073031;28;20055;-72
2023/12/25 04:29:15;;;;;;;12.80;2.30;;;9.90;99.90;;;;;;5072597;28;20519;-71
2023/12/25 04:31:41;;;;;;;10.73;2.28;;;10.00;99.90;;;;;;5071999;28;20048;-71
2023/12/25 04:34:06;;;;;;;14.13;2.88;;;9.90;99.90;;;;;;5072727;28;20058;-72
2023/12/25 04:36:32;;;;;;;11.27;2.60;;;10.40;99.90;;;;;;5072568;28;20446;-71
2023/12/25 04:39:01;;;;;;;14.38;2.95;;;9.90;99.90;;;;;;5072464;28;20040;-71
2023/12/25 04:41:27;;;;;;;18.42;3.67;;;9.90;99.90;;;;;;5072589;28;20139;-71
2023/12/25 04:43:53;;;;;;;13.80;2.15;;;10.00;99.90;;;;;;5091411;28;20064;-71
2023/12/25 04:46:19;;;;;;;13.02;2.55;;;9.90;99.90;;;;;;5072255;28;20052;-71
2023/12/25 04:48:45;;;;;;;15.52;2.50;;;10.20;99.90;;;;;;5073757;28;20499;-71
2023/12/25 04:51:11;;;;;;;10.48;2.00;;;10.10;99.90;;;;;;5072717;28;20052;-72
2023/12/25 04:53:36;;;;;;;11.80;2.20;;;9.90;99.90;;;;;;5071645;28;20048;-71
2023/12/25 04:56:03;;;;;;;15.48;2.67;;;9.90;99.90;;;;;;5072123;28;20059;-71
2023/12/25 04:58:28;;;;;;;14.50;3.10;;;9.90;99.90;;;;;;5071929;28;20492;-71
2023/12/25 05:00:54;;;;;;;16.88;2.60;;;10.00;99.90;;;;;;5072487;28;20040;-71
2023/12/25 05:03:21;;;;;;;12.18;2.40;;;10.00;99.90;;;;;;5072022;28;20052;-71
2023/12/25 05:05:50;;;;;;;14.85;2.50;;;9.80;99.90;;;;;;5071373;28;20059;-71
2023/12/25 05:08:18;;;;;;;15.30;3.00;;;9.80;99.90;;;;;;5071553;28;20558;-71
2023/12/25 05:10:43;;;;;;;12.02;2.58;;;9.80;99.90;;;;;;5073769;28;20399;-72
2023/12/25 05:13:09;;;;;;;16.25;2.90;;;9.70;99.90;;;;;;5070832;28;20123;-71
2023/12/25 05:15:37;;;;;;;16.60;3.15;;;10.20;99.90;;;;;;5071993;28;20044;-71
2023/12/25 05:18:03;;;;;;;16.38;3.03;;;9.70;99.90;;;;;;5071212;28;20037;-71
2023/12/25 05:20:29;;;;;;;15.85;3.45;;;9.70;99.90;;;;;;5071192;28;20051;-71
2023/12/25 05:22:54;;;;;;;14.50;3.22;;;9.70;99.90;;;;;;5071714;28;20064;-71
2023/12/25 05:25:20;;;;;;;15.57;3.03;;;9.60;99.90;;;;;;5071789;28;20044;-71
2023/12/25 05:27:45;;;;;;;14.98;3.08;;;9.60;99.90;;;;;;5071010;28;20048;-72
2023/12/25 05:30:14;;;;;;;14.02;2.80;;;9.60;99.90;;;;;;5070883;28;20155;-71
2023/12/25 05:32:40;;;;;;;17.38;3.20;;;9.50;99.90;;;;;;5072722;28;20039;-71
2023/12/25 05:35:06;;;;;;;18.13;2.95;;;9.50;99.90;;;;;;5070463;28;20487;-72
2023/12/25 05:37:32;;;;;;;9.13;2.60;;;9.40;99.90;;;;;;5071641;28;20105;-72
2023/12/25 05:39:59;;;;;;;8.18;2.70;;;9.40;99.90;;;;;;5071017;28;20487;-71
2023/12/25 05:42:25;;;;;;;13.02;2.60;;;9.40;99.90;;;;;;5071846;28;20123;-71
2023/12/25 05:44:50;;;;;;;18.73;3.50;;;9.30;99.90;;;;;;5071149;28;20555;-71
2023/12/25 05:47:16;;;;;;;12.98;3.08;;;9.30;99.90;;;;;;5070164;28;20036;-71
2023/12/25 05:49:42;;;;;;;11.57;2.42;;;9.30;99.90;;;;;;5071313;28;20100;-71
2023/12/25 05:52:08;;;;;;;11.23;2.42;;;9.30;99.90;;;;;;5070808;28;20080;-72
2023/12/25 05:54:34;;;;;;;21.58;2.88;;;9.30;99.90;;;;;;5070521;28;20047;-71
2023/12/25 05:56:59;;;;;;;13.18;2.53;;;9.30;99.90;;;;;;5070818;28;20048;-71
2023/12/25 05:59:25;;;;;;;13.98;2.92;;;9.90;99.90;;;;;;5072248;28;20400;-71
2023/12/25 06:01:51;;;;;;;12.45;2.63;;;9.80;99.90;;;;;;5070176;28;20036;-71
2023/12/25 06:04:17;;;;;;;19.60;3.20;;;9.40;99.90;;;;;;5070529;28;20068;-72
2023/12/25 06:06:43;;;;;;;18.05;3.03;;;9.50;99.90;;;;;;5071050;28;20095;-71
2023/12/25 06:09:12;;;;;;;15.98;2.67;;;9.50;99.90;;;;;;5070418;28;20136;-71
2023/12/25 06:11:38;;;;;;;19.73;3.45;;;9.50;99.90;;;;;;5058707;28;20051;-72
2023/12/25 06:14:04;;;;;;;14.18;2.67;;;9.40;99.90;;;;;;5071784;28;20448;-71
2023/12/25 06:16:30;;;;;;;12.57;2.72;;;9.50;99.90;;;;;;5070275;28;20127;-71
2023/12/25 06:18:56;;;;;;;11.07;2.58;;;9.80;99.90;;;;;;5070601;28;20149;-72
2023/12/25 06:21:21;;;;;;;14.63;2.35;;;9.40;99.90;;;;;;5070271;28;20046;-71
2023/12/25 06:23:47;;;;;;;12.15;2.47;;;9.40;99.90;;;;;;5070794;28;20032;-71
2023/12/25 06:26:13;;;;;;;14.48;2.60;;;9.30;99.90;;;;;;5070003;28;20048;-72
2023/12/25 06:28:38;;;;;;;15.20;2.88;;;9.40;99.90;;;;;;5071018;28;20055;-71
2023/12/25 06:31:04;;;;;;;16.23;3.42;;;9.50;99.90;;;;;;5069581;28;20036;-71
2023/12/25 06:33:29;;;;;;;14.05;2.65;;;9.30;99.90;;;;;;5070829;28;20044;-71
2023/12/25 06:35:55;;;;;;;21.13;3.15;;;9.30;99.90;;;;;;5070278;28;20421;-71
2023/12/25 06:38:20;;;;;;;12.85;2.88;;;9.30;99.90;;;;;;5069982;28;20051;-71
2023/12/25 06:40:46;;;;;;;12.35;2.60;;;9.40;99.90;;;;;;5071162;28;20082;-71
2023/12/25 06:43:12;;;;;;;16.20;3.58;;;9.80;99.90;;;;;;5069267;28;20480;-71
2023/12/25 06:45:37;;;;;;;14.75;2.70;;;9.30;99.90;;;;;;5070659;28;20040;-71
2023/12/25 06:48:03;;;;;;;18.30;2.78;;;9.20;99.90;;;;;;5069755;28;20106;-71
2023/12/25 06:50:29;;;;;;;19.60;3.17;;;9.20;99.90;;;;;;5069658;28;20040;-72
2023/12/25 06:52:54;;;;;;;12.68;2.50;;;9.40;99.90;;;;;;5070449;28;20404;-71
2023/12/25 06:55:20;;;;;;;19.20;3.35;;;9.20;99.90;;;;;;5070245;28;20040;-71
2023/12/25 06:57:46;;;;;;;14.45;2.53;;;9.10;99.90;;;;;;5069748;28;20064;-72
2023/12/25 07:00:11;;;;;;;13.90;2.72;;;9.10;99.90;;;;;;5070011;28;20231;-71
2023/12/25 07:02:40;;;;;;;14.70;2.58;;;9.10;99.90;;;;;;5070261;28;20119;-71
2023/12/25 07:05:06;;;;;;;16.52;3.33;;;9.00;99.90;;;;;;5069390;28;20055;-71
2023/12/25 07:07:32;;;;;;;12.57;2.58;;;9.10;99.90;;;;;;5070244;28;20053;-71
2023/12/25 07:09:57;;;;;;;9.63;2.20;;;9.10;99.90;;;;;;5070557;28;20407;-71
2023/12/25 07:12:23;;;;;;;10.85;2.30;;;9.40;99.90;;;;;;5068786;28;20048;-71
2023/12/25 07:14:50;;;;;;;14.43;2.72;;;9.10;99.90;;;;;;5071313;28;20044;-71
2023/12/25 07:17:17;;;;;;;11.60;2.75;;;9.00;99.90;;;;;;5073822;28;20053;-71
2023/12/25 07:19:43;;;;;;;14.13;2.42;;;9.00;99.90;;;;;;5073858;28;20078;-71
2023/12/25 07:22:09;;;;;;;13.13;3.10;;;9.00;99.90;;;;;;5073984;28;20075;-71
2023/12/25 07:24:35;;;;;;;16.40;3.60;;;8.90;99.90;;;;;;5074357;28;20040;-71
2023/12/25 07:27:00;;;;;;;13.15;2.78;;;8.90;99.90;;;;;;5072860;28;20082;-72
2023/12/25 07:29:26;;;;;;;15.00;2.90;;;9.00;99.90;;;;;;5073698;28;20040;-72
2023/12/25 07:31:52;;;;;;;13.70;2.78;;;9.10;99.90;;;;;;5073821;28;20060;-72
2023/12/25 07:34:18;;;;;;;19.05;2.63;;;9.10;99.90;;;;;;5072708;28;20136;-72
2023/12/25 07:36:44;;;;;;;19.88;3.17;;;9.20;99.90;;;;;;5073736;28;20044;-72
2023/12/25 07:39:10;;;;;;;13.60;2.65;;;9.20;99.90;;;;;;5073734;28;20491;-72
2023/12/25 07:41:36;;;;;;;7.97;1.90;;;9.20;99.90;;;;;;5072869;28;20161;-72
2023/12/25 07:44:02;;;;;;;10.95;1.80;;;9.10;99.90;;;;;;5072995;28;20053;-71
2023/12/25 07:46:28;;;;;;;6.15;1.58;;;9.00;99.90;;;;;;5074264;28;20071;-72
2023/12/25 07:48:57;;;;;;;10.45;1.70;;;9.10;99.90;;;;;;5073283;28;20504;-72
2023/12/25 07:51:23;;;;;;;10.52;1.80;;;8.90;99.90;;;;;;5073032;28;20412;-71
2023/12/25 07:53:49;;;;;;;7.85;1.63;;;8.80;99.90;;;;;;5072253;28;20865;-71
2023/12/25 07:56:14;;;;;;;8.45;1.38;;;8.70;99.90;;;;;;5096726;28;20179;-71
2023/12/25 07:58:40;;;;;;;8.50;1.77;;;8.70;99.90;;;;;;5073031;28;20052;-71
2023/12/25 08:01:06;;;;;;;8.38;1.70;;;8.70;99.90;;;;;;5072061;28;20457;-76
2023/12/25 08:03:31;;;;;;;6.55;1.77;;;8.60;99.90;;;;;;5073103;28;20125;-77
2023/12/25 08:05:57;;;;;;;9.27;2.17;;;8.60;99.90;;;;;;5072418;28;20045;-71
2023/12/25 08:08:23;;;;;;;9.45;2.10;;;8.60;99.90;;;;;;5072915;28;20046;-72
2023/12/25 08:10:48;;;;;;;13.30;2.30;;;8.70;99.90;;;;;;5073225;28;20047;-72
2023/12/25 08:13:17;;;;;;;11.27;2.72;;;9.00;99.90;;;;;;5072824;28;20037;-71
2023/12/25 08:15:43;;;;;;;15.95;2.40;;;8.50;99.90;;;;;;5073588;28;20049;-71
2023/12/25 08:18:08;;;;;;;13.02;2.30;;;8.50;99.90;;;;;;5072549;28;20047;-71
2023/12/25 08:20:34;;;;;;;11.70;2.42;;;8.50;99.90;;;;;;5073319;28;20098;-72
2023/12/25 08:23:00;;;;;;;11.05;1.92;;;8.50;99.90;;;;;;5071689;28;20102;-71
2023/12/25 08:25:26;;;;;;;11.48;2.10;;;8.70;99.90;;;;;;5072381;28;20033;-72
2023/12/25 08:27:52;;;;;;;11.77;2.35;;;8.40;99.90;;;;;;5072489;28;20056;-72
2023/12/25 08:30:18;;;;;;;12.02;2.10;;;8.50;99.90;;;;;;5071973;28;20350;-72
2023/12/25 08:32:43;;;;;;;11.57;1.88;;;8.50;99.90;;;;;;5072502;28;20049;-72
2023/12/25 08:35:10;;;;;;;10.93;2.78;;;8.50;99.90;;;;;;5072164;28;20044;-71
2023/12/25 08:37:36;;;;;;;14.32;2.75;;;8.50;99.90;;;;;;5072166;28;20060;-71
2023/12/25 08:40:03;;;;;;;8.57;2.63;;;8.50;99.90;;;;;;5072922;28;20085;-71
2023/12/25 08:42:30;;;;;;;13.52;3.40;;;8.50;99.90;;;;;;5071652;28;20510;-74
2023/12/25 08:44:56;;;;;;;11.20;2.90;;;8.50;99.90;;;;;;5071420;28;20095;-72
2023/12/25 08:47:22;;;;;;;9.05;2.35;;;8.60;99.90;;;;;;5072171;28;20068;-72
2023/12/25 08:49:48;;;;;;;16.10;5.43;;;8.90;99.90;;;;;;5071580;28;20087;-72
2023/12/25 08:52:14;;;;;;;14.23;5.15;;;8.60;99.90;;;;;;5072047;28;20459;-71
2023/12/25 08:54:39;;;;;;;13.65;4.40;;;8.90;99.90;;;;;;5070279;28;20109;-73
2023/12/25 08:57:05;;;;;;;19.83;6.50;;;8.70;99.90;;;;;;5069380;28;20114;-73
2023/12/25 08:59:31;;;;;;;12.75;3.17;;;8.60;99.90;;;;;;5070696;28;20044;-73
2023/12/25 09:01:56;;;;;;;13.38;4.28;;;8.70;99.90;;;;;;5070409;28;20113;-73
2023/12/25 09:04:22;;;;;;;12.82;4.55;;;8.60;99.90;;;;;;5069152;28;20048;-73
2023/12/25 09:06:47;;;;;;;12.05;3.60;;;8.70;99.90;;;;;;5070206;28;20059;-74
2023/12/25 09:09:13;;;;;;;14.85;7.70;;;8.80;99.90;;;;;;5070015;28;20033;-74
2023/12/25 09:11:39;;;;;;;13.13;5.35;;;8.70;99.90;;;;;;5069877;28;20055;-74
2023/12/25 09:14:04;;;;;;;15.65;4.90;;;8.80;99.90;;;;;;5069841;28;20044;-74
2023/12/25 09:16:35;;;;;;;18.25;4.85;;;8.90;99.90;;;;;;5071680;28;20127;-73
2023/12/25 09:19:01;;;;;;;17.67;5.47;;;9.20;99.90;;;;;;5069505;28;20044;-73
2023/12/25 09:21:26;;;;;;;19.38;3.30;;;9.00;99.90;;;;;;5071813;28;20480;-72
2023/12/25 09:23:52;;;;;;;16.95;4.32;;;9.10;99.90;;;;;;5067344;28;20438;-72
2023/12/25 09:26:21;;;;;;;15.13;3.20;;;9.10;99.90;;;;;;5069172;28;20098;-72
2023/12/25 09:28:50;;;;;;;26.25;9.35;;;9.10;99.90;;;;;;5070463;28;20439;-72
2023/12/25 09:31:16;;;;;;;16.92;7.13;;;9.10;99.90;;;;;;5070918;28;20048;-72
2023/12/25 09:33:42;;;;;;;23.85;8.65;;;9.10;99.90;;;;;;5070548;28;20132;-72
2023/12/25 09:36:08;;;;;;;16.13;6.68;;;9.10;99.90;;;;;;5070978;28;20123;-72
2023/12/25 09:38:33;;;;;;;17.92;5.32;;;9.20;99.90;;;;;;5070378;28;20043;-71
2023/12/25 09:40:59;;;;;;;14.38;3.92;;;9.10;99.90;;;;;;5070081;28;20094;-72
2023/12/25 09:43:27;;;;;;;19.45;8.50;;;9.20;99.90;;;;;;5071148;28;20044;-72
2023/12/25 09:45:54;;;;;;;13.80;4.15;;;9.10;99.90;;;;;;5070637;28;20501;-73
2023/12/25 09:48:19;;;;;;;17.35;4.65;;;9.10;99.90;;;;;;5069872;28;20094;-72
2023/12/25 09:50:45;;;;;;;15.63;5.13;;;9.30;99.90;;;;;;5071378;28;20419;-71
2023/12/25 09:53:11;;;;;;;13.25;4.38;;;9.00;99.90;;;;;;5070240;28;20046;-74
2023/12/25 09:55:37;;;;;;;16.92;4.28;;;9.50;99.90;;;;;;5071792;28;20043;-72
2023/12/25 09:58:06;;;;;;;13.23;2.85;;;9.00;99.90;;;;;;5070522;28;20048;-73
2023/12/25 10:00:32;;;;;;;12.27;4.80;;;9.10;99.90;;;;;;5070027;28;20542;-74
2023/12/25 10:02:58;;;;;;;11.20;3.30;;;9.00;99.90;;;;;;5070684;28;20818;-71
2023/12/25 10:05:23;;;;;;;12.15;2.70;;;9.00;99.90;;;;;;5070662;28;20041;-76
2023/12/25 10:07:50;;;;;;;15.70;5.20;;;9.10;99.90;;;;;;5069498;28;20048;-78
2023/12/25 10:10:15;;;;;;;15.90;6.18;;;9.10;99.90;;;;;;5070483;28;20041;-75
2023/12/25 10:12:45;;;;;;;26.48;8.52;;;9.20;99.90;;;;;;5070326;28;20089;-74
2023/12/25 10:15:13;;;;;;;21.85;6.97;;;9.20;99.90;;;;;;5069459;28;20036;-74
2023/12/25 10:17:39;;;;;;;19.60;5.47;;;9.20;99.90;;;;;;5071402;28;20417;-75
2023/12/25 10:20:07;;;;;;;26.25;9.20;;;9.20;99.90;;;;;;5071497;28;20173;-74
2023/12/25 10:22:37;;;;;;;31.65;10.80;;;9.20;99.90;;;;;;5070175;28;20040;-75
2023/12/25 10:25:15;;;;;;;25.52;7.82;;;9.60;99.90;;;;;;5070323;28;20412;-72
2023/12/25 10:27:44;;;;;;;28.23;10.98;;;9.80;99.90;;;;;;5060392;28;20098;-77
2023/12/25 10:30:18;;;;;;;37.17;10.85;;;9.40;99.90;;;;;;5069620;28;20051;-71
2023/12/25 10:32:44;;;;;;;31.75;10.68;;;9.40;99.90;;;;;;5070405;28;20048;-79
2023/12/25 10:35:11;;;;;;;28.38;8.32;;;9.50;99.90;;;;;;5068864;28;20049;-69
2023/12/25 10:37:38;;;;;;;21.88;8.13;;;9.50;99.90;;;;;;5069599;28;20079;-71
2023/12/25 10:40:18;;;;;;;26.63;7.93;;;9.60;99.90;;;;;;5069729;28;20481;-71
2023/12/25 10:42:49;;;;;;;31.10;9.10;;;9.60;99.90;;;;;;5069010;28;20114;-69
2023/12/25 10:45:22;;;;;;;22.10;6.43;;;9.40;99.90;;;;;;5058199;28;20060;-70
2023/12/25 10:47:58;;;;;;;23.48;6.65;;;9.60;99.90;;;;;;5068628;28;20484;-69
2023/12/25 10:50:27;;;;;;;20.25;5.07;;;9.60;99.90;;;;;;5075657;28;20473;-70
2023/12/25 10:53:03;;;;;;;20.48;4.50;;;9.60;99.90;;;;;;5076507;28;20085;-71
2023/12/25 10:55:43;;;;;;;17.55;4.32;;;9.50;99.90;;;;;;5076343;28;20060;-70
2023/12/25 10:58:13;;;;;;;21.17;5.15;;;9.60;99.90;;;;;;5075720;28;20091;-72
2023/12/25 11:00:43;;;;;;;32.38;7.47;;;9.60;99.90;;;;;;5076735;28;20071;-73
2023/12/25 11:03:12;;;;;;;29.45;7.97;;;9.60;99.90;;;;;;5075470;28;20076;-75
2023/12/25 11:05:40;;;;;;;32.60;7.03;;;9.90;99.90;;;;;;5077048;28;20044;-74
2023/12/25 11:08:06;;;;;;;21.17;6.38;;;9.60;99.90;;;;;;5073625;28;20052;-72
2023/12/25 11:10:32;;;;;;;18.38;4.53;;;9.60;99.90;;;;;;5072062;28;20049;-73
2023/12/25 11:12:58;;;;;;;19.45;4.60;;;9.70;99.90;;;;;;5077970;28;20101;-72
2023/12/25 11:15:24;;;;;;;21.40;3.42;;;9.60;99.90;;;;;;5074064;28;20523;-72
2023/12/25 11:17:51;;;;;;;19.58;3.50;;;9.70;99.90;;;;;;5076635;28;20407;-75
2023/12/25 11:20:17;;;;;;;16.45;3.35;;;9.80;99.90;;;;;;5076412;28;20040;-72
2023/12/25 11:22:46;;;;;;;11.77;2.83;;;9.70;99.90;;;;;;5076825;28;20462;-76
2023/12/25 11:25:17;;;;;;;22.30;4.25;;;10.50;99.90;;;;;;5059567;28;20507;-71
2023/12/25 11:27:51;;;;;;;21.05;3.78;;;9.80;99.90;;;;;;5072906;28;20053;-74
2023/12/25 11:30:18;;;;;;;23.77;7.88;;;9.80;99.90;;;;;;5070283;28;20045;-73
2023/12/25 11:32:48;;;;;;;20.55;5.65;;;9.80;99.90;;;;;;5074170;28;20040;-77
2023/12/25 11:35:14;;;;;;;17.38;6.53;;;10.20;99.90;;;;;;5078324;28;20037;-74
2023/12/25 11:37:40;;;;;;;17.23;4.63;;;9.80;99.90;;;;;;5078050;28;20063;-73
2023/12/25 11:40:06;;;;;;;20.77;5.93;;;9.90;99.90;;;;;;5075016;28;20055;-72
2023/12/25 11:42:34;;;;;;;32.65;12.13;;;9.80;99.90;;;;;;5071146;28;20597;-75
2023/12/25 11:45:01;;;;;;;25.08;8.38;;;9.90;99.90;;;;;;5074001;28;20052;-74
2023/12/25 11:47:28;;;;;;;23.85;8.30;;;9.90;99.90;;;;;;5077440;28;20083;-73
2023/12/25 11:49:55;;;;;;;22.60;7.15;;;9.90;99.90;;;;;;5076240;28;20059;-73
2023/12/25 11:52:46;;;;;;;29.27;9.40;;;10.00;99.90;;;;;;5077408;28;20153;-73
2023/12/25 11:55:19;;;;;;;14.07;5.65;;;9.80;99.90;;;;;;5077221;28;20059;-74
2023/12/25 11:57:45;;;;;;;23.25;7.63;;;10.30;99.90;;;;;;5076165;28;20044;-73
2023/12/25 12:00:18;;;;;;;32.83;11.77;;;10.50;99.90;;;;;;5071626;28;20106;-73
2023/12/25 12:02:44;;;;;;;25.27;10.00;;;9.70;99.90;;;;;;5075098;28;20477;-77
2023/12/25 12:05:11;;;;;;;25.38;9.32;;;9.70;99.90;;;;;;5074677;28;20056;-73
2023/12/25 12:07:37;;;;;;;19.30;6.53;;;10.40;99.90;;;;;;5075115;28;20136;-73
2023/12/25 12:10:03;;;;;;;24.77;7.68;;;9.70;99.90;;;;;;5074025;28;20475;-73
2023/12/25 12:12:28;;;;;;;12.45;4.35;;;9.70;99.90;;;;;;5074299;28;20040;-73
2023/12/25 12:14:54;;;;;;;19.67;6.15;;;9.70;99.90;;;;;;5073930;28;20101;-77
2023/12/25 12:17:21;;;;;;;12.68;3.42;;;9.90;99.90;;;;;;5068519;28;20032;-73
2023/12/25 12:19:49;;;;;;;17.20;3.90;;;9.70;99.90;;;;;;5070781;28;20101;-73
2023/12/25 12:22:18;;;;;;;17.50;7.70;;;9.70;99.90;;;;;;5073306;28;20068;-73
2023/12/25 12:24:44;;;;;;;19.73;7.70;;;9.70;99.90;;;;;;5073856;28;20369;-75
2023/12/25 12:27:11;;;;;;;21.60;6.35;;;9.70;99.90;;;;;;5073053;28;20051;-78
2023/12/25 12:29:40;;;;;;;15.63;6.13;;;9.70;99.90;;;;;;5069113;28;20060;-73
2023/12/25 12:32:07;;;;;;;41.83;20.10;;;9.70;99.90;;;;;;5069322;28;20484;-72
2023/12/25 12:34:32;;;;;;;31.95;15.15;;;9.70;99.90;;;;;;5065813;28;20044;-72
2023/12/25 12:37:03;;;;;;;22.33;9.35;;;9.70;99.90;;;;;;5071319;28;20060;-72
2023/12/25 12:39:30;;;;;;;19.65;8.20;;;9.60;99.90;;;;;;5072296;28;20412;-72